sensor_id;sensor_type;location;lat;lon;timestamp;P1;durP1;ratioP1;P2;durP2;ratioP2
48006;SDS011;33771;48.180;11.400;2023-04-15T00:00:08;7.23;;;4.03;;
48006;SDS011;33771;48.180;11.400;2023-04-15T00:02:35;9.70;;;4.00;;
48006;SDS011;33771;48.180;11.400;2023-04-15T00:05:01;10.50;;;3.97;;
48006;SDS011;33771;48.180;11.400;2023-04-15T00:07:27;8.63;;;3.70;;
48006;SDS011;33771;48.180;11.400;2023-04-15T00:09:53;9.13;;;3.73;;
48006;SDS011;33771;48.180;11.400;2023-04-15T00:12:21;6.07;;;3.53;;
48006;SDS011;33771;48.180;11.400;2023-04-15T00:14:47;12.37;;;4.33;;
48006;SDS011;33771;48.180;11.400;2023-04-15T00:17:14;8.50;;;3.50;;
48006;SDS011;33771;48.180;11.400;2023-04-15T00:19:39;8.90;;;3.90;;
48006;SDS011;33771;48.180;11.400;2023-04-15T00:22:05;9.37;;;3.87;;
48006;SDS011;33771;48.180;11.400;2023-04-15T00:24:32;8.47;;;3.70;;
48006;SDS011;33771;48.180;11.400;2023-04-15T00:26:58;5.60;;;3.47;;
48006;SDS011;33771;48.180;11.400;2023-04-15T00:29:23;9.60;;;3.90;;
48006;SDS011;33771;48.180;11.400;2023-04-15T00:31:49;9.63;;;4.17;;
48006;SDS011;33771;48.180;11.400;2023-04-15T00:34:15;9.90;;;3.70;;
48006;SDS011;33771;48.180;11.400;2023-04-15T00:36:41;7.53;;;3.60;;
48006;SDS011;33771;48.180;11.400;2023-04-15T00:39:07;7.33;;;3.60;;
48006;SDS011;33771;48.180;11.400;2023-04-15T00:41:32;11.27;;;4.40;;
48006;SDS011;33771;48.180;11.400;2023-04-15T00:43:58;10.43;;;4.07;;
48006;SDS011;33771;48.180;11.400;2023-04-15T00:46:27;9.30;;;3.80;;
48006;SDS011;33771;48.180;11.400;2023-04-15T00:48:54;12.53;;;4.43;;
48006;SDS011;33771;48.180;11.400;2023-04-15T00:51:20;9.63;;;4.30;;
48006;SDS011;33771;48.180;11.400;2023-04-15T00:53:46;8.70;;;4.30;;
48006;SDS011;33771;48.180;11.400;2023-04-15T00:56:11;9.50;;;4.33;;
48006;SDS011;33771;48.180;11.400;2023-04-15T00:58:38;10.50;;;4.13;;
48006;SDS011;33771;48.180;11.400;2023-04-15T01:01:04;10.83;;;4.93;;
48006;SDS011;33771;48.180;11.400;2023-04-15T01:03:29;15.13;;;4.60;;
48006;SDS011;33771;48.180;11.400;2023-04-15T01:05:55;10.40;;;4.60;;
48006;SDS011;33771;48.180;11.400;2023-04-15T01:08:29;7.87;;;4.57;;
48006;SDS011;33771;48.180;11.400;2023-04-15T01:10:55;10.23;;;4.07;;
48006;SDS011;33771;48.180;11.400;2023-04-15T01:13:22;8.00;;;4.17;;
48006;SDS011;33771;48.180;11.400;2023-04-15T01:15:49;9.57;;;4.37;;
48006;SDS011;33771;48.180;11.400;2023-04-15T01:18:16;9.63;;;3.90;;
48006;SDS011;33771;48.180;11.400;2023-04-15T01:20:42;8.53;;;4.63;;
48006;SDS011;33771;48.180;11.400;2023-04-15T01:23:08;10.67;;;4.87;;
48006;SDS011;33771;48.180;11.400;2023-04-15T01:25:34;7.80;;;4.50;;
48006;SDS011;33771;48.180;11.400;2023-04-15T01:28:00;8.63;;;5.20;;
48006;SDS011;33771;48.180;11.400;2023-04-15T01:30:26;8.80;;;5.50;;
48006;SDS011;33771;48.180;11.400;2023-04-15T01:32:52;12.73;;;5.30;;
48006;SDS011;33771;48.180;11.400;2023-04-15T01:35:18;10.30;;;5.13;;
48006;SDS011;33771;48.180;11.400;2023-04-15T01:37:43;13.47;;;5.40;;
48006;SDS011;33771;48.180;11.400;2023-04-15T01:40:10;9.23;;;4.73;;
48006;SDS011;33771;48.180;11.400;2023-04-15T01:42:36;9.03;;;5.33;;
48006;SDS011;33771;48.180;11.400;2023-04-15T01:45:02;10.83;;;5.10;;
48006;SDS011;33771;48.180;11.400;2023-04-15T01:47:28;12.07;;;4.90;;
48006;SDS011;33771;48.180;11.400;2023-04-15T01:49:54;7.57;;;4.53;;
48006;SDS011;33771;48.180;11.400;2023-04-15T01:52:20;7.13;;;4.47;;
48006;SDS011;33771;48.180;11.400;2023-04-15T01:54:45;7.53;;;4.90;;
48006;SDS011;33771;48.180;11.400;2023-04-15T01:57:11;8.43;;;4.60;;
48006;SDS011;33771;48.180;11.400;2023-04-15T01:59:37;9.93;;;4.77;;
48006;SDS011;33771;48.180;11.400;2023-04-15T02:02:02;9.70;;;4.47;;
48006;SDS011;33771;48.180;11.400;2023-04-15T02:04:29;6.83;;;4.50;;
48006;SDS011;33771;48.180;11.400;2023-04-15T02:06:54;8.17;;;5.13;;
48006;SDS011;33771;48.180;11.400;2023-04-15T02:09:20;7.43;;;4.83;;
48006;SDS011;33771;48.180;11.400;2023-04-15T02:11:46;9.10;;;5.27;;
48006;SDS011;33771;48.180;11.400;2023-04-15T02:14:12;12.17;;;5.00;;
48006;SDS011;33771;48.180;11.400;2023-04-15T02:16:38;10.30;;;4.63;;
48006;SDS011;33771;48.180;11.400;2023-04-15T02:19:03;7.47;;;4.80;;
48006;SDS011;33771;48.180;11.400;2023-04-15T02:21:29;8.40;;;4.20;;
48006;SDS011;33771;48.180;11.400;2023-04-15T02:23:55;11.63;;;5.27;;
48006;SDS011;33771;48.180;11.400;2023-04-15T02:26:21;11.57;;;5.03;;
48006;SDS011;33771;48.180;11.400;2023-04-15T02:28:46;7.80;;;4.87;;
48006;SDS011;33771;48.180;11.400;2023-04-15T02:31:13;9.83;;;5.33;;
48006;SDS011;33771;48.180;11.400;2023-04-15T02:33:38;10.03;;;4.93;;
48006;SDS011;33771;48.180;11.400;2023-04-15T02:36:04;10.20;;;4.83;;
48006;SDS011;33771;48.180;11.400;2023-04-15T02:38:31;7.93;;;4.63;;
48006;SDS011;33771;48.180;11.400;2023-04-15T02:40:57;10.13;;;5.17;;
48006;SDS011;33771;48.180;11.400;2023-04-15T02:43:23;8.83;;;5.10;;
48006;SDS011;33771;48.180;11.400;2023-04-15T02:45:48;9.23;;;5.37;;
48006;SDS011;33771;48.180;11.400;2023-04-15T02:48:15;9.93;;;5.40;;
48006;SDS011;33771;48.180;11.400;2023-04-15T02:50:42;10.73;;;5.27;;
48006;SDS011;33771;48.180;11.400;2023-04-15T02:53:08;8.17;;;4.87;;
48006;SDS011;33771;48.180;11.400;2023-04-15T02:55:33;8.40;;;4.57;;
48006;SDS011;33771;48.180;11.400;2023-04-15T02:57:59;9.43;;;4.33;;
48006;SDS011;33771;48.180;11.400;2023-04-15T03:00:25;7.83;;;4.43;;
48006;SDS011;33771;48.180;11.400;2023-04-15T03:02:56;8.73;;;4.77;;
48006;SDS011;33771;48.180;11.400;2023-04-15T03:05:23;11.23;;;5.20;;
48006;SDS011;33771;48.180;11.400;2023-04-15T03:07:49;7.60;;;4.10;;
48006;SDS011;33771;48.180;11.400;2023-04-15T03:10:15;7.53;;;4.13;;
48006;SDS011;33771;48.180;11.400;2023-04-15T03:12:41;6.53;;;3.87;;
48006;SDS011;33771;48.180;11.400;2023-04-15T03:15:07;7.50;;;3.97;;
48006;SDS011;33771;48.180;11.400;2023-04-15T03:17:33;10.03;;;4.00;;
48006;SDS011;33771;48.180;11.400;2023-04-15T03:20:00;6.67;;;3.73;;
48006;SDS011;33771;48.180;11.400;2023-04-15T03:22:32;8.57;;;4.47;;
48006;SDS011;33771;48.180;11.400;2023-04-15T03:24:58;8.83;;;4.03;;
48006;SDS011;33771;48.180;11.400;2023-04-15T03:27:24;13.47;;;4.67;;
48006;SDS011;33771;48.180;11.400;2023-04-15T03:29:50;11.27;;;5.57;;
48006;SDS011;33771;48.180;11.400;2023-04-15T03:32:16;8.67;;;4.63;;
48006;SDS011;33771;48.180;11.400;2023-04-15T03:34:42;7.80;;;4.07;;
48006;SDS011;33771;48.180;11.400;2023-04-15T03:37:07;11.77;;;4.80;;
48006;SDS011;33771;48.180;11.400;2023-04-15T03:39:33;9.97;;;4.07;;
48006;SDS011;33771;48.180;11.400;2023-04-15T03:41:59;11.23;;;4.30;;
48006;SDS011;33771;48.180;11.400;2023-04-15T03:44:26;10.83;;;4.10;;
48006;SDS011;33771;48.180;11.400;2023-04-15T03:46:51;8.90;;;3.97;;
48006;SDS011;33771;48.180;11.400;2023-04-15T03:49:17;9.07;;;3.70;;
48006;SDS011;33771;48.180;11.400;2023-04-15T03:51:43;10.77;;;4.50;;
48006;SDS011;33771;48.180;11.400;2023-04-15T03:54:09;6.60;;;3.93;;
48006;SDS011;33771;48.180;11.400;2023-04-15T03:56:35;8.23;;;4.53;;
48006;SDS011;33771;48.180;11.400;2023-04-15T03:59:01;8.93;;;4.53;;
48006;SDS011;33771;48.180;11.400;2023-04-15T04:01:26;8.27;;;3.67;;
48006;SDS011;33771;48.180;11.400;2023-04-15T04:03:52;6.63;;;4.00;;
48006;SDS011;33771;48.180;11.400;2023-04-15T04:06:17;11.47;;;4.67;;
48006;SDS011;33771;48.180;11.400;2023-04-15T04:08:43;8.60;;;4.37;;
48006;SDS011;33771;48.180;11.400;2023-04-15T04:11:09;10.73;;;4.33;;
48006;SDS011;33771;48.180;11.400;2023-04-15T04:13:35;9.90;;;3.97;;
48006;SDS011;33771;48.180;11.400;2023-04-15T04:16:01;5.50;;;3.43;;
48006;SDS011;33771;48.180;11.400;2023-04-15T04:18:28;6.67;;;3.50;;
48006;SDS011;33771;48.180;11.400;2023-04-15T04:20:55;8.30;;;3.97;;
48006;SDS011;33771;48.180;11.400;2023-04-15T04:23:20;9.23;;;3.97;;
48006;SDS011;33771;48.180;11.400;2023-04-15T04:25:46;8.87;;;3.73;;
48006;SDS011;33771;48.180;11.400;2023-04-15T04:28:11;8.80;;;3.47;;
48006;SDS011;33771;48.180;11.400;2023-04-15T04:30:37;7.77;;;3.50;;
48006;SDS011;33771;48.180;11.400;2023-04-15T04:33:03;7.27;;;3.70;;
48006;SDS011;33771;48.180;11.400;2023-04-15T04:35:29;8.33;;;4.10;;
48006;SDS011;33771;48.180;11.400;2023-04-15T04:37:54;9.43;;;4.00;;
48006;SDS011;33771;48.180;11.400;2023-04-15T04:40:20;10.10;;;3.90;;
48006;SDS011;33771;48.180;11.400;2023-04-15T04:42:46;7.13;;;3.87;;
48006;SDS011;33771;48.180;11.400;2023-04-15T04:45:11;10.33;;;3.73;;
48006;SDS011;33771;48.180;11.400;2023-04-15T04:47:37;9.57;;;3.60;;
48006;SDS011;33771;48.180;11.400;2023-04-15T04:50:03;8.37;;;3.33;;
48006;SDS011;33771;48.180;11.400;2023-04-15T04:52:28;6.27;;;3.47;;
48006;SDS011;33771;48.180;11.400;2023-04-15T04:54:54;9.03;;;3.27;;
48006;SDS011;33771;48.180;11.400;2023-04-15T04:57:20;7.60;;;3.60;;
48006;SDS011;33771;48.180;11.400;2023-04-15T04:59:45;10.13;;;3.30;;
48006;SDS011;33771;48.180;11.400;2023-04-15T05:02:11;10.03;;;3.53;;
48006;SDS011;33771;48.180;11.400;2023-04-15T05:04:37;6.17;;;2.70;;
48006;SDS011;33771;48.180;11.400;2023-04-15T05:07:02;5.60;;;2.93;;
48006;SDS011;33771;48.180;11.400;2023-04-15T05:09:28;5.80;;;2.73;;
48006;SDS011;33771;48.180;11.400;2023-04-15T05:11:56;7.03;;;3.60;;
48006;SDS011;33771;48.180;11.400;2023-04-15T05:14:21;7.23;;;3.97;;
48006;SDS011;33771;48.180;11.400;2023-04-15T05:16:47;7.60;;;3.43;;
48006;SDS011;33771;48.180;11.400;2023-04-15T05:19:12;6.43;;;2.97;;
48006;SDS011;33771;48.180;11.400;2023-04-15T05:21:38;10.40;;;3.40;;
48006;SDS011;33771;48.180;11.400;2023-04-15T05:24:04;5.93;;;3.50;;
48006;SDS011;33771;48.180;11.400;2023-04-15T05:26:29;11.87;;;3.00;;
48006;SDS011;33771;48.180;11.400;2023-04-15T05:28:55;9.10;;;2.90;;
48006;SDS011;33771;48.180;11.400;2023-04-15T05:31:21;7.50;;;2.40;;
48006;SDS011;33771;48.180;11.400;2023-04-15T05:33:46;4.43;;;2.13;;
48006;SDS011;33771;48.180;11.400;2023-04-15T05:36:12;7.50;;;2.30;;
48006;SDS011;33771;48.180;11.400;2023-04-15T05:38:37;7.87;;;2.60;;
48006;SDS011;33771;48.180;11.400;2023-04-15T05:41:03;5.13;;;2.43;;
48006;SDS011;33771;48.180;11.400;2023-04-15T05:43:29;5.13;;;2.40;;
48006;SDS011;33771;48.180;11.400;2023-04-15T05:45:54;5.30;;;2.20;;
48006;SDS011;33771;48.180;11.400;2023-04-15T05:48:20;6.67;;;2.37;;
48006;SDS011;33771;48.180;11.400;2023-04-15T05:50:46;7.37;;;2.23;;
48006;SDS011;33771;48.180;11.400;2023-04-15T05:53:11;7.37;;;2.00;;
48006;SDS011;33771;48.180;11.400;2023-04-15T05:55:37;11.03;;;2.93;;
48006;SDS011;33771;48.180;11.400;2023-04-15T05:58:02;6.20;;;2.30;;
48006;SDS011;33771;48.180;11.400;2023-04-15T06:00:28;12.60;;;2.60;;
48006;SDS011;33771;48.180;11.400;2023-04-15T06:02:54;7.07;;;2.30;;
48006;SDS011;33771;48.180;11.400;2023-04-15T06:05:20;6.80;;;2.43;;
48006;SDS011;33771;48.180;11.400;2023-04-15T06:07:46;5.47;;;2.17;;
48006;SDS011;33771;48.180;11.400;2023-04-15T06:10:12;5.33;;;1.97;;
48006;SDS011;33771;48.180;11.400;2023-04-15T06:12:37;7.30;;;2.00;;
48006;SDS011;33771;48.180;11.400;2023-04-15T06:15:03;7.83;;;2.27;;
48006;SDS011;33771;48.180;11.400;2023-04-15T06:17:30;4.57;;;1.93;;
48006;SDS011;33771;48.180;11.400;2023-04-15T06:19:56;7.37;;;2.43;;
48006;SDS011;33771;48.180;11.400;2023-04-15T06:22:22;7.50;;;2.00;;
48006;SDS011;33771;48.180;11.400;2023-04-15T06:24:47;4.83;;;2.30;;
48006;SDS011;33771;48.180;11.400;2023-04-15T06:27:17;7.97;;;2.10;;
48006;SDS011;33771;48.180;11.400;2023-04-15T06:29:42;6.07;;;2.30;;
48006;SDS011;33771;48.180;11.400;2023-04-15T06:32:08;3.67;;;1.87;;
48006;SDS011;33771;48.180;11.400;2023-04-15T06:34:34;4.30;;;2.10;;
48006;SDS011;33771;48.180;11.400;2023-04-15T06:37:00;6.73;;;2.83;;
48006;SDS011;33771;48.180;11.400;2023-04-15T06:39:26;4.60;;;1.70;;
48006;SDS011;33771;48.180;11.400;2023-04-15T06:41:51;7.53;;;2.30;;
48006;SDS011;33771;48.180;11.400;2023-04-15T06:44:17;5.07;;;2.00;;
48006;SDS011;33771;48.180;11.400;2023-04-15T06:46:43;3.77;;;1.80;;
48006;SDS011;33771;48.180;11.400;2023-04-15T06:49:09;3.90;;;2.00;;
48006;SDS011;33771;48.180;11.400;2023-04-15T06:51:35;5.53;;;2.03;;
48006;SDS011;33771;48.180;11.400;2023-04-15T06:54:01;5.53;;;1.83;;
48006;SDS011;33771;48.180;11.400;2023-04-15T06:56:30;4.60;;;2.20;;
48006;SDS011;33771;48.180;11.400;2023-04-15T06:58:56;10.30;;;2.13;;
48006;SDS011;33771;48.180;11.400;2023-04-15T07:01:21;7.30;;;2.10;;
48006;SDS011;33771;48.180;11.400;2023-04-15T07:03:47;3.83;;;1.80;;
48006;SDS011;33771;48.180;11.400;2023-04-15T07:06:12;7.83;;;2.30;;
48006;SDS011;33771;48.180;11.400;2023-04-15T07:08:38;5.07;;;1.93;;
48006;SDS011;33771;48.180;11.400;2023-04-15T07:11:04;10.90;;;2.27;;
48006;SDS011;33771;48.180;11.400;2023-04-15T07:13:30;4.67;;;1.70;;
48006;SDS011;33771;48.180;11.400;2023-04-15T07:15:56;5.60;;;1.80;;
48006;SDS011;33771;48.180;11.400;2023-04-15T07:18:22;3.70;;;2.33;;
48006;SDS011;33771;48.180;11.400;2023-04-15T07:20:50;6.67;;;1.87;;
48006;SDS011;33771;48.180;11.400;2023-04-15T07:23:15;5.17;;;1.67;;
48006;SDS011;33771;48.180;11.400;2023-04-15T07:25:41;6.50;;;2.27;;
48006;SDS011;33771;48.180;11.400;2023-04-15T07:28:06;3.27;;;1.80;;
48006;SDS011;33771;48.180;11.400;2023-04-15T07:30:32;6.60;;;2.80;;
48006;SDS011;33771;48.180;11.400;2023-04-15T07:32:58;5.63;;;2.27;;
48006;SDS011;33771;48.180;11.400;2023-04-15T07:35:24;5.87;;;2.40;;
48006;SDS011;33771;48.180;11.400;2023-04-15T07:37:50;5.60;;;2.00;;
48006;SDS011;33771;48.180;11.400;2023-04-15T07:40:16;10.67;;;2.03;;
48006;SDS011;33771;48.180;11.400;2023-04-15T07:42:42;7.13;;;2.00;;
48006;SDS011;33771;48.180;11.400;2023-04-15T07:45:08;6.57;;;2.20;;
48006;SDS011;33771;48.180;11.400;2023-04-15T07:47:34;5.70;;;2.10;;
48006;SDS011;33771;48.180;11.400;2023-04-15T07:50:00;5.97;;;2.47;;
48006;SDS011;33771;48.180;11.400;2023-04-15T07:52:26;6.80;;;1.97;;
48006;SDS011;33771;48.180;11.400;2023-04-15T07:54:52;8.43;;;2.17;;
48006;SDS011;33771;48.180;11.400;2023-04-15T07:57:18;4.43;;;2.00;;
48006;SDS011;33771;48.180;11.400;2023-04-15T07:59:43;5.93;;;2.10;;
48006;SDS011;33771;48.180;11.400;2023-04-15T08:02:09;15.97;;;5.70;;
48006;SDS011;33771;48.180;11.400;2023-04-15T08:04:35;6.23;;;2.03;;
48006;SDS011;33771;48.180;11.400;2023-04-15T08:07:01;6.03;;;2.10;;
48006;SDS011;33771;48.180;11.400;2023-04-15T08:09:28;5.63;;;2.10;;
48006;SDS011;33771;48.180;11.400;2023-04-15T08:11:54;4.23;;;2.07;;
48006;SDS011;33771;48.180;11.400;2023-04-15T08:14:20;4.20;;;1.90;;
48006;SDS011;33771;48.180;11.400;2023-04-15T08:16:46;8.33;;;2.57;;
48006;SDS011;33771;48.180;11.400;2023-04-15T08:19:12;7.27;;;2.03;;
48006;SDS011;33771;48.180;11.400;2023-04-15T08:21:37;5.40;;;2.30;;
48006;SDS011;33771;48.180;11.400;2023-04-15T08:24:03;5.53;;;1.90;;
48006;SDS011;33771;48.180;11.400;2023-04-15T08:26:30;6.33;;;2.23;;
48006;SDS011;33771;48.180;11.400;2023-04-15T08:28:55;7.30;;;2.20;;
48006;SDS011;33771;48.180;11.400;2023-04-15T08:31:21;7.90;;;2.10;;
48006;SDS011;33771;48.180;11.400;2023-04-15T08:33:46;6.93;;;2.00;;
48006;SDS011;33771;48.180;11.400;2023-04-15T08:36:12;6.93;;;2.00;;
48006;SDS011;33771;48.180;11.400;2023-04-15T08:38:38;4.50;;;2.20;;
48006;SDS011;33771;48.180;11.400;2023-04-15T08:41:21;5.37;;;2.00;;
48006;SDS011;33771;48.180;11.400;2023-04-15T08:43:53;6.90;;;2.20;;
48006;SDS011;33771;48.180;11.400;2023-04-15T08:46:19;6.07;;;2.33;;
48006;SDS011;33771;48.180;11.400;2023-04-15T08:48:46;3.63;;;1.97;;
48006;SDS011;33771;48.180;11.400;2023-04-15T08:51:13;4.30;;;2.00;;
48006;SDS011;33771;48.180;11.400;2023-04-15T08:53:40;6.63;;;2.50;;
48006;SDS011;33771;48.180;11.400;2023-04-15T08:56:07;5.83;;;2.10;;
48006;SDS011;33771;48.180;11.400;2023-04-15T08:58:36;3.73;;;2.10;;
48006;SDS011;33771;48.180;11.400;2023-04-15T09:01:02;5.07;;;1.90;;
48006;SDS011;33771;48.180;11.400;2023-04-15T09:03:27;5.07;;;2.37;;
48006;SDS011;33771;48.180;11.400;2023-04-15T09:05:54;4.60;;;2.30;;
48006;SDS011;33771;48.180;11.400;2023-04-15T09:08:21;6.00;;;2.40;;
48006;SDS011;33771;48.180;11.400;2023-04-15T09:10:46;6.53;;;2.37;;
48006;SDS011;33771;48.180;11.400;2023-04-15T09:13:12;6.40;;;2.70;;
48006;SDS011;33771;48.180;11.400;2023-04-15T09:15:38;7.33;;;2.83;;
48006;SDS011;33771;48.180;11.400;2023-04-15T09:18:04;4.53;;;2.50;;
48006;SDS011;33771;48.180;11.400;2023-04-15T09:20:32;4.53;;;2.23;;
48006;SDS011;33771;48.180;11.400;2023-04-15T09:23:12;5.37;;;2.50;;
48006;SDS011;33771;48.180;11.400;2023-04-15T09:25:39;5.63;;;2.57;;
48006;SDS011;33771;48.180;11.400;2023-04-15T09:28:08;6.67;;;3.10;;
48006;SDS011;33771;48.180;11.400;2023-04-15T09:30:34;5.93;;;2.60;;
48006;SDS011;33771;48.180;11.400;2023-04-15T09:33:01;5.77;;;3.10;;
48006;SDS011;33771;48.180;11.400;2023-04-15T09:35:28;6.43;;;2.40;;
48006;SDS011;33771;48.180;11.400;2023-04-15T09:38:07;6.23;;;2.50;;
48006;SDS011;33771;48.180;11.400;2023-04-15T09:40:34;4.97;;;2.70;;
48006;SDS011;33771;48.180;11.400;2023-04-15T09:43:01;7.17;;;2.50;;
48006;SDS011;33771;48.180;11.400;2023-04-15T09:45:29;4.82;;;2.60;;
48006;SDS011;33771;48.180;11.400;2023-04-15T09:47:59;5.17;;;2.63;;
48006;SDS011;33771;48.180;11.400;2023-04-15T09:50:45;4.73;;;2.43;;
48006;SDS011;33771;48.180;11.400;2023-04-15T09:53:16;8.17;;;3.20;;
48006;SDS011;33771;48.180;11.400;2023-04-15T10:01:20;6.97;;;2.88;;
48006;SDS011;33771;48.180;11.400;2023-04-15T10:03:45;6.65;;;2.88;;
48006;SDS011;33771;48.180;11.400;2023-04-15T10:06:11;5.72;;;2.70;;
48006;SDS011;33771;48.180;11.400;2023-04-15T10:08:38;7.40;;;2.97;;
48006;SDS011;33771;48.180;11.400;2023-04-15T10:11:05;6.57;;;2.72;;
48006;SDS011;33771;48.180;11.400;2023-04-15T10:13:31;6.57;;;3.05;;
48006;SDS011;33771;48.180;11.400;2023-04-15T10:16:06;5.25;;;2.80;;
48006;SDS011;33771;48.180;11.400;2023-04-15T10:18:37;7.70;;;2.90;;
48006;SDS011;33771;48.180;11.400;2023-04-15T10:21:05;4.67;;;2.97;;
48006;SDS011;33771;48.180;11.400;2023-04-15T10:23:32;9.30;;;3.10;;
48006;SDS011;33771;48.180;11.400;2023-04-15T10:25:58;5.17;;;2.80;;
48006;SDS011;33771;48.180;11.400;2023-04-15T10:28:24;6.38;;;3.33;;
48006;SDS011;33771;48.180;11.400;2023-04-15T10:30:51;6.65;;;3.10;;
48006;SDS011;33771;48.180;11.400;2023-04-15T10:33:19;7.35;;;3.42;;
48006;SDS011;33771;48.180;11.400;2023-04-15T10:35:47;7.93;;;3.28;;
48006;SDS011;33771;48.180;11.400;2023-04-15T10:41:11;7.40;;;3.60;;
48006;SDS011;33771;48.180;11.400;2023-04-15T10:43:47;6.85;;;3.63;;
48006;SDS011;33771;48.180;11.400;2023-04-15T10:46:20;6.28;;;3.78;;
48006;SDS011;33771;48.180;11.400;2023-04-15T10:51:35;6.90;;;3.47;;
48006;SDS011;33771;48.180;11.400;2023-04-15T10:54:05;6.97;;;3.13;;
48006;SDS011;33771;48.180;11.400;2023-04-15T10:56:37;9.32;;;3.85;;
48006;SDS011;33771;48.180;11.400;2023-04-15T10:59:05;6.88;;;3.50;;
48006;SDS011;33771;48.180;11.400;2023-04-15T11:01:51;7.68;;;4.43;;
48006;SDS011;33771;48.180;11.400;2023-04-15T11:05:04;9.90;;;3.97;;
48006;SDS011;33771;48.180;11.400;2023-04-15T11:12:42;5.88;;;3.33;;
48006;SDS011;33771;48.180;11.400;2023-04-15T11:18:19;5.45;;;3.45;;
48006;SDS011;33771;48.180;11.400;2023-04-15T11:20:52;8.40;;;3.63;;
48006;SDS011;33771;48.180;11.400;2023-04-15T11:25:59;6.43;;;3.67;;
48006;SDS011;33771;48.180;11.400;2023-04-15T11:28:26;7.18;;;3.75;;
48006;SDS011;33771;48.180;11.400;2023-04-15T11:30:53;5.13;;;3.60;;
48006;SDS011;33771;48.180;11.400;2023-04-15T11:33:20;7.00;;;3.67;;
48006;SDS011;33771;48.180;11.400;2023-04-15T11:35:46;7.70;;;4.00;;
48006;SDS011;33771;48.180;11.400;2023-04-15T11:38:12;7.00;;;3.70;;
48006;SDS011;33771;48.180;11.400;2023-04-15T11:40:39;7.83;;;3.87;;
48006;SDS011;33771;48.180;11.400;2023-04-15T11:43:07;7.27;;;4.67;;
48006;SDS011;33771;48.180;11.400;2023-04-15T11:45:34;10.23;;;4.50;;
48006;SDS011;33771;48.180;11.400;2023-04-15T11:48:10;7.77;;;3.70;;
48006;SDS011;33771;48.180;11.400;2023-04-15T11:50:37;8.50;;;4.03;;
48006;SDS011;33771;48.180;11.400;2023-04-15T11:53:07;10.43;;;4.03;;
48006;SDS011;33771;48.180;11.400;2023-04-15T11:55:43;5.77;;;3.60;;
48006;SDS011;33771;48.180;11.400;2023-04-15T11:58:12;6.43;;;4.23;;
48006;SDS011;33771;48.180;11.400;2023-04-15T12:00:40;8.63;;;4.70;;
48006;SDS011;33771;48.180;11.400;2023-04-15T12:03:13;10.57;;;4.63;;
48006;SDS011;33771;48.180;11.400;2023-04-15T12:06:02;8.20;;;4.65;;
48006;SDS011;33771;48.180;11.400;2023-04-15T12:13:52;7.00;;;4.10;;
48006;SDS011;33771;48.180;11.400;2023-04-15T12:16:19;8.53;;;4.90;;
48006;SDS011;33771;48.180;11.400;2023-04-15T12:18:46;11.53;;;4.37;;
48006;SDS011;33771;48.180;11.400;2023-04-15T12:21:14;8.53;;;4.53;;
48006;SDS011;33771;48.180;11.400;2023-04-15T12:23:52;6.60;;;4.20;;
48006;SDS011;33771;48.180;11.400;2023-04-15T12:26:26;10.90;;;5.00;;
48006;SDS011;33771;48.180;11.400;2023-04-15T12:29:04;6.20;;;3.63;;
48006;SDS011;33771;48.180;11.400;2023-04-15T12:31:31;7.67;;;3.70;;
48006;SDS011;33771;48.180;11.400;2023-04-15T12:33:57;7.30;;;3.20;;
48006;SDS011;33771;48.180;11.400;2023-04-15T12:36:24;7.47;;;3.00;;
48006;SDS011;33771;48.180;11.400;2023-04-15T12:38:50;7.00;;;2.73;;
48006;SDS011;33771;48.180;11.400;2023-04-15T12:41:16;6.43;;;2.30;;
48006;SDS011;33771;48.180;11.400;2023-04-15T12:43:43;5.30;;;2.63;;
48006;SDS011;33771;48.180;11.400;2023-04-15T12:46:09;6.57;;;3.07;;
48006;SDS011;33771;48.180;11.400;2023-04-15T12:48:35;4.73;;;2.90;;
48006;SDS011;33771;48.180;11.400;2023-04-15T12:51:00;5.93;;;3.10;;
48006;SDS011;33771;48.180;11.400;2023-04-15T12:53:26;10.67;;;5.27;;
48006;SDS011;33771;48.180;11.400;2023-04-15T12:55:52;7.53;;;2.90;;
48006;SDS011;33771;48.180;11.400;2023-04-15T12:58:18;7.47;;;3.07;;
48006;SDS011;33771;48.180;11.400;2023-04-15T13:00:44;6.33;;;2.67;;
48006;SDS011;33771;48.180;11.400;2023-04-15T13:03:09;7.57;;;2.40;;
48006;SDS011;33771;48.180;11.400;2023-04-15T13:05:35;5.13;;;2.50;;
48006;SDS011;33771;48.180;11.400;2023-04-15T13:08:03;4.87;;;2.43;;
48006;SDS011;33771;48.180;11.400;2023-04-15T13:10:29;5.40;;;2.37;;
48006;SDS011;33771;48.180;11.400;2023-04-15T13:12:55;6.30;;;3.10;;
48006;SDS011;33771;48.180;11.400;2023-04-15T13:15:21;7.40;;;2.70;;
48006;SDS011;33771;48.180;11.400;2023-04-15T13:17:47;5.03;;;2.63;;
48006;SDS011;33771;48.180;11.400;2023-04-15T13:20:14;6.07;;;2.80;;
48006;SDS011;33771;48.180;11.400;2023-04-15T13:22:39;8.33;;;3.40;;
48006;SDS011;33771;48.180;11.400;2023-04-15T13:25:05;6.80;;;3.00;;
48006;SDS011;33771;48.180;11.400;2023-04-15T13:27:32;6.20;;;3.00;;
48006;SDS011;33771;48.180;11.400;2023-04-15T13:29:57;5.60;;;3.10;;
48006;SDS011;33771;48.180;11.400;2023-04-15T13:32:23;5.73;;;3.33;;
48006;SDS011;33771;48.180;11.400;2023-04-15T13:34:49;4.47;;;3.33;;
48006;SDS011;33771;48.180;11.400;2023-04-15T13:37:15;6.03;;;3.33;;
48006;SDS011;33771;48.180;11.400;2023-04-15T13:39:40;6.07;;;3.40;;
48006;SDS011;33771;48.180;11.400;2023-04-15T13:42:06;6.60;;;4.10;;
48006;SDS011;33771;48.180;11.400;2023-04-15T13:44:31;7.83;;;3.80;;
48006;SDS011;33771;48.180;11.400;2023-04-15T13:46:57;7.13;;;3.77;;
48006;SDS011;33771;48.180;11.400;2023-04-15T13:49:23;8.33;;;3.60;;
48006;SDS011;33771;48.180;11.400;2023-04-15T13:51:49;8.93;;;3.87;;
48006;SDS011;33771;48.180;11.400;2023-04-15T13:54:15;5.23;;;3.40;;
48006;SDS011;33771;48.180;11.400;2023-04-15T13:56:41;7.73;;;3.90;;
48006;SDS011;33771;48.180;11.400;2023-04-15T13:59:06;6.23;;;3.40;;
48006;SDS011;33771;48.180;11.400;2023-04-15T14:01:33;5.53;;;3.53;;
48006;SDS011;33771;48.180;11.400;2023-04-15T14:03:59;7.27;;;3.07;;
48006;SDS011;33771;48.180;11.400;2023-04-15T14:06:25;5.87;;;3.17;;
48006;SDS011;33771;48.180;11.400;2023-04-15T14:08:51;7.53;;;3.40;;
48006;SDS011;33771;48.180;11.400;2023-04-15T14:11:19;7.63;;;3.13;;
48006;SDS011;33771;48.180;11.400;2023-04-15T14:13:45;6.80;;;3.40;;
48006;SDS011;33771;48.180;11.400;2023-04-15T14:16:11;6.83;;;3.30;;
48006;SDS011;33771;48.180;11.400;2023-04-15T14:18:36;7.87;;;2.97;;
48006;SDS011;33771;48.180;11.400;2023-04-15T14:21:02;4.53;;;2.90;;
48006;SDS011;33771;48.180;11.400;2023-04-15T14:23:29;6.57;;;2.80;;
48006;SDS011;33771;48.180;11.400;2023-04-15T14:25:54;5.80;;;3.00;;
48006;SDS011;33771;48.180;11.400;2023-04-15T14:28:20;4.73;;;2.90;;
48006;SDS011;33771;48.180;11.400;2023-04-15T14:30:45;7.03;;;3.13;;
48006;SDS011;33771;48.180;11.400;2023-04-15T14:33:11;4.93;;;2.90;;
48006;SDS011;33771;48.180;11.400;2023-04-15T14:35:37;4.83;;;2.70;;
48006;SDS011;33771;48.180;11.400;2023-04-15T14:38:03;6.17;;;2.87;;
48006;SDS011;33771;48.180;11.400;2023-04-15T14:40:30;4.77;;;2.60;;
48006;SDS011;33771;48.180;11.400;2023-04-15T14:42:57;5.40;;;3.07;;
48006;SDS011;33771;48.180;11.400;2023-04-15T14:45:22;7.27;;;3.33;;
48006;SDS011;33771;48.180;11.400;2023-04-15T14:47:48;5.80;;;3.27;;
48006;SDS011;33771;48.180;11.400;2023-04-15T14:50:13;6.27;;;2.90;;
48006;SDS011;33771;48.180;11.400;2023-04-15T14:52:39;5.83;;;2.83;;
48006;SDS011;33771;48.180;11.400;2023-04-15T14:55:05;4.93;;;3.20;;
48006;SDS011;33771;48.180;11.400;2023-04-15T14:57:31;5.13;;;2.90;;